Terminal Aerodrome Forecast
Issued by NWS Pendleton, OR

Home | Current Version | Previous Version | Text Only | Print | Product List | Glossary On
Versions: 1 2 3 4 5 6 7 8 9 10 11 12 13 14 15 16 17 18
394
FTUS46 KPDT 230535
TAFPDT
TAF
KPDT 230535Z 2306/2406 VRB06KT P6SM SCT050
     FM230800 15007KT P6SM SCT060
      TEMPO 2310/2314 3SM BR BKN020
     FM232000 32007KT 5SM BR SCT010 BKN100
      TEMPO 2402/2406 5SM BR BKN020=

USA.gov is the U.S. government's official web portal to all federal, state and local government web resources and services.